sensor_id;sensor_type;location;lat;lon;timestamp;P1;durP1;ratioP1;P2;durP2;ratioP2
63050;SDS011;49136;47.416;19.402;2024-03-22T00:01:40;144.45;;;137.38;;
63050;SDS011;49136;47.416;19.402;2024-03-22T00:04:06;165.38;;;156.80;;
63050;SDS011;49136;47.416;19.402;2024-03-22T00:06:34;157.23;;;149.40;;
63050;SDS011;49136;47.416;19.402;2024-03-22T00:08:59;157.55;;;149.52;;
63050;SDS011;49136;47.416;19.402;2024-03-22T00:11:24;151.57;;;144.23;;
63050;SDS011;49136;47.416;19.402;2024-03-22T00:13:50;164.82;;;156.90;;
63050;SDS011;49136;47.416;19.402;2024-03-22T00:16:16;168.40;;;160.32;;
63050;SDS011;49136;47.416;19.402;2024-03-22T00:18:41;153.35;;;145.85;;
63050;SDS011;49136;47.416;19.402;2024-03-22T00:21:07;172.77;;;164.38;;
63050;SDS011;49136;47.416;19.402;2024-03-22T00:23:32;180.85;;;172.10;;
63050;SDS011;49136;47.416;19.402;2024-03-22T00:25:57;175.50;;;166.38;;
63050;SDS011;49136;47.416;19.402;2024-03-22T00:28:23;157.13;;;149.52;;
63050;SDS011;49136;47.416;19.402;2024-03-22T00:30:48;174.70;;;166.05;;
63050;SDS011;49136;47.416;19.402;2024-03-22T00:33:14;167.40;;;159.27;;
63050;SDS011;49136;47.416;19.402;2024-03-22T00:35:39;179.07;;;170.38;;
63050;SDS011;49136;47.416;19.402;2024-03-22T00:38:04;172.77;;;164.45;;
63050;SDS011;49136;47.416;19.402;2024-03-22T00:40:30;177.15;;;168.60;;
63050;SDS011;49136;47.416;19.402;2024-03-22T00:42:55;175.45;;;166.90;;
63050;SDS011;49136;47.416;19.402;2024-03-22T00:45:21;180.93;;;172.25;;
63050;SDS011;49136;47.416;19.402;2024-03-22T00:47:46;187.65;;;178.68;;
63050;SDS011;49136;47.416;19.402;2024-03-22T00:50:12;169.85;;;161.63;;
63050;SDS011;49136;47.416;19.402;2024-03-22T00:52:37;197.82;;;187.88;;
63050;SDS011;49136;47.416;19.402;2024-03-22T00:55:03;209.30;;;199.20;;
63050;SDS011;49136;47.416;19.402;2024-03-22T00:57:30;198.82;;;189.20;;
63050;SDS011;49136;47.416;19.402;2024-03-22T00:59:55;198.73;;;189.13;;
63050;SDS011;49136;47.416;19.402;2024-03-22T01:02:21;205.70;;;195.65;;
63050;SDS011;49136;47.416;19.402;2024-03-22T01:04:47;219.93;;;208.45;;
63050;SDS011;49136;47.416;19.402;2024-03-22T01:07:13;227.07;;;216.18;;
63050;SDS011;49136;47.416;19.402;2024-03-22T01:09:38;219.25;;;208.55;;
63050;SDS011;49136;47.416;19.402;2024-03-22T01:12:04;239.70;;;228.02;;
63050;SDS011;49136;47.416;19.402;2024-03-22T01:14:30;237.02;;;225.48;;
63050;SDS011;49136;47.416;19.402;2024-03-22T01:16:55;224.68;;;213.02;;
63050;SDS011;49136;47.416;19.402;2024-03-22T01:19:21;259.33;;;246.40;;
63050;SDS011;49136;47.416;19.402;2024-03-22T01:21:47;266.52;;;253.27;;
63050;SDS011;49136;47.416;19.402;2024-03-22T01:24:13;262.83;;;249.98;;
63050;SDS011;49136;47.416;19.402;2024-03-22T01:26:38;248.52;;;236.48;;
63050;SDS011;49136;47.416;19.402;2024-03-22T01:29:04;267.05;;;253.93;;
63050;SDS011;49136;47.416;19.402;2024-03-22T01:31:29;269.95;;;256.52;;
63050;SDS011;49136;47.416;19.402;2024-03-22T01:33:55;281.83;;;267.80;;
63050;SDS011;49136;47.416;19.402;2024-03-22T01:36:20;265.88;;;252.38;;
63050;SDS011;49136;47.416;19.402;2024-03-22T01:38:45;267.52;;;254.45;;
63050;SDS011;49136;47.416;19.402;2024-03-22T01:41:11;271.88;;;258.55;;
63050;SDS011;49136;47.416;19.402;2024-03-22T01:43:36;269.20;;;256.00;;
63050;SDS011;49136;47.416;19.402;2024-03-22T01:46:02;267.63;;;254.15;;
63050;SDS011;49136;47.416;19.402;2024-03-22T01:48:27;278.98;;;265.33;;
63050;SDS011;49136;47.416;19.402;2024-03-22T01:50:53;278.27;;;264.60;;
63050;SDS011;49136;47.416;19.402;2024-03-22T01:53:19;259.95;;;247.20;;
63050;SDS011;49136;47.416;19.402;2024-03-22T01:55:44;283.83;;;269.27;;
63050;SDS011;49136;47.416;19.402;2024-03-22T01:58:10;287.35;;;273.17;;
63050;SDS011;49136;47.416;19.402;2024-03-22T02:00:37;259.70;;;247.10;;
63050;SDS011;49136;47.416;19.402;2024-03-22T02:03:02;260.63;;;247.45;;
63050;SDS011;49136;47.416;19.402;2024-03-22T02:05:28;260.60;;;247.77;;
63050;SDS011;49136;47.416;19.402;2024-03-22T02:07:54;272.83;;;259.48;;
63050;SDS011;49136;47.416;19.402;2024-03-22T02:10:19;260.60;;;247.85;;
63050;SDS011;49136;47.416;19.402;2024-03-22T02:12:45;265.85;;;252.55;;
63050;SDS011;49136;47.416;19.402;2024-03-22T02:15:11;266.50;;;253.20;;
63050;SDS011;49136;47.416;19.402;2024-03-22T02:17:36;257.48;;;244.90;;
63050;SDS011;49136;47.416;19.402;2024-03-22T02:20:02;277.10;;;263.15;;
63050;SDS011;49136;47.416;19.402;2024-03-22T02:22:29;260.25;;;247.48;;
63050;SDS011;49136;47.416;19.402;2024-03-22T02:24:54;253.35;;;241.02;;
63050;SDS011;49136;47.416;19.402;2024-03-22T02:27:20;266.42;;;253.32;;
63050;SDS011;49136;47.416;19.402;2024-03-22T02:29:45;270.88;;;257.60;;
63050;SDS011;49136;47.416;19.402;2024-03-22T02:32:11;232.85;;;221.40;;
63050;SDS011;49136;47.416;19.402;2024-03-22T02:34:37;256.75;;;244.20;;
63050;SDS011;49136;47.416;19.402;2024-03-22T02:37:02;272.85;;;259.15;;
63050;SDS011;49136;47.416;19.402;2024-03-22T02:39:28;274.23;;;260.77;;
63050;SDS011;49136;47.416;19.402;2024-03-22T02:41:53;257.50;;;244.80;;
63050;SDS011;49136;47.416;19.402;2024-03-22T02:44:19;264.73;;;251.80;;
63050;SDS011;49136;47.416;19.402;2024-03-22T02:46:44;245.68;;;233.40;;
63050;SDS011;49136;47.416;19.402;2024-03-22T02:49:10;274.92;;;261.23;;
63050;SDS011;49136;47.416;19.402;2024-03-22T02:51:35;251.20;;;238.88;;
63050;SDS011;49136;47.416;19.402;2024-03-22T02:54:01;266.90;;;253.93;;
63050;SDS011;49136;47.416;19.402;2024-03-22T02:56:27;239.02;;;227.43;;
63050;SDS011;49136;47.416;19.402;2024-03-22T02:58:53;252.27;;;239.85;;
63050;SDS011;49136;47.416;19.402;2024-03-22T03:01:18;258.92;;;246.18;;
63050;SDS011;49136;47.416;19.402;2024-03-22T03:03:43;267.23;;;254.07;;
63050;SDS011;49136;47.416;19.402;2024-03-22T03:06:09;270.38;;;257.00;;
63050;SDS011;49136;47.416;19.402;2024-03-22T03:08:35;254.63;;;241.98;;
63050;SDS011;49136;47.416;19.402;2024-03-22T03:11:00;280.08;;;266.10;;
63050;SDS011;49136;47.416;19.402;2024-03-22T03:13:25;271.48;;;257.92;;
63050;SDS011;49136;47.416;19.402;2024-03-22T03:15:51;247.70;;;235.35;;
63050;SDS011;49136;47.416;19.402;2024-03-22T03:18:16;250.82;;;238.23;;
63050;SDS011;49136;47.416;19.402;2024-03-22T03:20:42;268.50;;;254.95;;
63050;SDS011;49136;47.416;19.402;2024-03-22T03:23:08;265.52;;;252.07;;
63050;SDS011;49136;47.416;19.402;2024-03-22T03:25:33;284.40;;;270.15;;
63050;SDS011;49136;47.416;19.402;2024-03-22T03:27:58;245.43;;;233.38;;
63050;SDS011;49136;47.416;19.402;2024-03-22T03:30:24;267.45;;;253.73;;
63050;SDS011;49136;47.416;19.402;2024-03-22T03:32:49;276.90;;;263.33;;
63050;SDS011;49136;47.416;19.402;2024-03-22T03:35:15;327.58;;;310.60;;
63050;SDS011;49136;47.416;19.402;2024-03-22T03:37:40;284.38;;;270.13;;
63050;SDS011;49136;47.416;19.402;2024-03-22T03:40:06;267.48;;;252.95;;
63050;SDS011;49136;47.416;19.402;2024-03-22T03:42:32;276.63;;;262.65;;
63050;SDS011;49136;47.416;19.402;2024-03-22T03:44:57;271.83;;;258.10;;
63050;SDS011;49136;47.416;19.402;2024-03-22T03:47:23;263.25;;;249.95;;
63050;SDS011;49136;47.416;19.402;2024-03-22T03:49:48;283.65;;;269.33;;
63050;SDS011;49136;47.416;19.402;2024-03-22T03:52:14;271.10;;;257.70;;
63050;SDS011;49136;47.416;19.402;2024-03-22T03:54:39;271.58;;;257.83;;
63050;SDS011;49136;47.416;19.402;2024-03-22T03:57:05;280.77;;;266.23;;
63050;SDS011;49136;47.416;19.402;2024-03-22T03:59:30;263.23;;;249.80;;
63050;SDS011;49136;47.416;19.402;2024-03-22T04:01:56;309.40;;;293.58;;
63050;SDS011;49136;47.416;19.402;2024-03-22T04:04:21;306.52;;;291.08;;
63050;SDS011;49136;47.416;19.402;2024-03-22T04:06:47;273.88;;;259.15;;
63050;SDS011;49136;47.416;19.402;2024-03-22T04:09:12;296.60;;;281.80;;
63050;SDS011;49136;47.416;19.402;2024-03-22T04:11:38;305.23;;;289.30;;
63050;SDS011;49136;47.416;19.402;2024-03-22T04:14:04;286.00;;;271.52;;
63050;SDS011;49136;47.416;19.402;2024-03-22T04:16:30;301.40;;;286.05;;
63050;SDS011;49136;47.416;19.402;2024-03-22T04:18:56;300.60;;;285.02;;
63050;SDS011;49136;47.416;19.402;2024-03-22T04:21:21;287.80;;;273.13;;
63050;SDS011;49136;47.416;19.402;2024-03-22T04:23:47;290.63;;;275.98;;
63050;SDS011;49136;47.416;19.402;2024-03-22T04:26:12;300.95;;;285.20;;
63050;SDS011;49136;47.416;19.402;2024-03-22T04:28:37;320.10;;;303.88;;
63050;SDS011;49136;47.416;19.402;2024-03-22T04:31:04;284.38;;;269.20;;
63050;SDS011;49136;47.416;19.402;2024-03-22T04:33:31;301.80;;;285.50;;
63050;SDS011;49136;47.416;19.402;2024-03-22T04:35:58;313.25;;;297.00;;
63050;SDS011;49136;47.416;19.402;2024-03-22T04:38:25;355.60;;;335.92;;
63050;SDS011;49136;47.416;19.402;2024-03-22T04:40:51;316.88;;;299.67;;
63050;SDS011;49136;47.416;19.402;2024-03-22T04:43:17;323.63;;;307.08;;
63050;SDS011;49136;47.416;19.402;2024-03-22T04:45:43;308.25;;;292.25;;
63050;SDS011;49136;47.416;19.402;2024-03-22T04:48:09;397.23;;;375.75;;
63050;SDS011;49136;47.416;19.402;2024-03-22T04:50:34;333.15;;;315.75;;
63050;SDS011;49136;47.416;19.402;2024-03-22T04:53:00;363.67;;;344.27;;
63050;SDS011;49136;47.416;19.402;2024-03-22T04:55:26;345.58;;;327.35;;
63050;SDS011;49136;47.416;19.402;2024-03-22T04:57:51;333.98;;;316.23;;
63050;SDS011;49136;47.416;19.402;2024-03-22T05:00:17;327.95;;;310.63;;
63050;SDS011;49136;47.416;19.402;2024-03-22T05:02:43;383.63;;;363.23;;
63050;SDS011;49136;47.416;19.402;2024-03-22T05:05:08;383.45;;;361.85;;
63050;SDS011;49136;47.416;19.402;2024-03-22T05:07:34;410.58;;;387.02;;
63050;SDS011;49136;47.416;19.402;2024-03-22T05:09:59;352.20;;;333.33;;
63050;SDS011;49136;47.416;19.402;2024-03-22T05:12:24;438.65;;;414.05;;
63050;SDS011;49136;47.416;19.402;2024-03-22T05:14:50;403.52;;;381.60;;
63050;SDS011;49136;47.416;19.402;2024-03-22T05:17:15;424.88;;;400.10;;
63050;SDS011;49136;47.416;19.402;2024-03-22T05:19:41;458.70;;;431.73;;
63050;SDS011;49136;47.416;19.402;2024-03-22T05:22:06;364.10;;;344.55;;
63050;SDS011;49136;47.416;19.402;2024-03-22T05:24:31;373.70;;;353.88;;
63050;SDS011;49136;47.416;19.402;2024-03-22T05:26:57;355.50;;;335.90;;
63050;SDS011;49136;47.416;19.402;2024-03-22T05:29:24;401.85;;;379.17;;
63050;SDS011;49136;47.416;19.402;2024-03-22T05:31:50;360.00;;;340.65;;
63050;SDS011;49136;47.416;19.402;2024-03-22T05:34:17;391.13;;;369.30;;
63050;SDS011;49136;47.416;19.402;2024-03-22T05:36:43;387.58;;;366.67;;
63050;SDS011;49136;47.416;19.402;2024-03-22T05:39:09;387.30;;;365.85;;
63050;SDS011;49136;47.416;19.402;2024-03-22T05:41:36;397.73;;;374.45;;
63050;SDS011;49136;47.416;19.402;2024-03-22T05:44:01;402.88;;;380.10;;
63050;SDS011;49136;47.416;19.402;2024-03-22T05:46:28;390.88;;;369.05;;
63050;SDS011;49136;47.416;19.402;2024-03-22T05:48:53;435.30;;;410.35;;
63050;SDS011;49136;47.416;19.402;2024-03-22T05:51:19;394.52;;;372.88;;
63050;SDS011;49136;47.416;19.402;2024-03-22T05:53:44;406.10;;;383.42;;
63050;SDS011;49136;47.416;19.402;2024-03-22T05:56:10;404.15;;;381.52;;
63050;SDS011;49136;47.416;19.402;2024-03-22T05:58:35;390.58;;;369.00;;
63050;SDS011;49136;47.416;19.402;2024-03-22T06:01:05;416.20;;;393.05;;
63050;SDS011;49136;47.416;19.402;2024-03-22T06:03:30;413.73;;;390.65;;
63050;SDS011;49136;47.416;19.402;2024-03-22T06:05:55;450.35;;;424.67;;
63050;SDS011;49136;47.416;19.402;2024-03-22T06:08:24;420.52;;;396.17;;
63050;SDS011;49136;47.416;19.402;2024-03-22T06:10:50;398.02;;;375.92;;
63050;SDS011;49136;47.416;19.402;2024-03-22T06:13:17;393.10;;;370.95;;
63050;SDS011;49136;47.416;19.402;2024-03-22T06:15:43;404.08;;;381.48;;
63050;SDS011;49136;47.416;19.402;2024-03-22T06:18:10;434.50;;;408.90;;
63050;SDS011;49136;47.416;19.402;2024-03-22T06:20:36;1211.63;;;699.03;;
63050;SDS011;49136;47.416;19.402;2024-03-22T06:23:01;1999.90;;;999.90;;
63050;SDS011;49136;47.416;19.402;2024-03-22T06:25:27;1999.90;;;999.90;;
63050;SDS011;49136;47.416;19.402;2024-03-22T06:27:52;1999.90;;;999.90;;
63050;SDS011;49136;47.416;19.402;2024-03-22T06:30:18;1999.90;;;999.90;;
63050;SDS011;49136;47.416;19.402;2024-03-22T06:32:43;1999.90;;;999.90;;
63050;SDS011;49136;47.416;19.402;2024-03-22T06:35:08;1999.90;;;999.90;;
63050;SDS011;49136;47.416;19.402;2024-03-22T06:37:36;1999.90;;;999.90;;
63050;SDS011;49136;47.416;19.402;2024-03-22T06:40:02;1999.90;;;999.90;;
63050;SDS011;49136;47.416;19.402;2024-03-22T06:42:28;1999.90;;;999.90;;
63050;SDS011;49136;47.416;19.402;2024-03-22T06:44:53;1999.90;;;999.90;;
63050;SDS011;49136;47.416;19.402;2024-03-22T06:47:19;1999.90;;;999.90;;
63050;SDS011;49136;47.416;19.402;2024-03-22T06:49:45;1999.90;;;999.90;;
63050;SDS011;49136;47.416;19.402;2024-03-22T06:52:11;1999.90;;;999.90;;
63050;SDS011;49136;47.416;19.402;2024-03-22T06:54:36;1999.90;;;999.90;;
63050;SDS011;49136;47.416;19.402;2024-03-22T06:57:02;1999.90;;;999.90;;
63050;SDS011;49136;47.416;19.402;2024-03-22T06:59:27;1999.90;;;999.90;;
63050;SDS011;49136;47.416;19.402;2024-03-22T07:01:53;1999.90;;;999.90;;
63050;SDS011;49136;47.416;19.402;2024-03-22T07:04:18;1999.90;;;999.90;;
63050;SDS011;49136;47.416;19.402;2024-03-22T07:06:44;1999.90;;;999.90;;
63050;SDS011;49136;47.416;19.402;2024-03-22T07:09:09;1999.90;;;999.90;;
63050;SDS011;49136;47.416;19.402;2024-03-22T07:11:34;1999.90;;;999.90;;
63050;SDS011;49136;47.416;19.402;2024-03-22T07:14:00;1999.90;;;999.90;;
63050;SDS011;49136;47.416;19.402;2024-03-22T07:16:25;1999.90;;;999.90;;
63050;SDS011;49136;47.416;19.402;2024-03-22T07:18:50;1999.90;;;999.90;;
63050;SDS011;49136;47.416;19.402;2024-03-22T07:21:16;1999.90;;;999.90;;
63050;SDS011;49136;47.416;19.402;2024-03-22T07:23:41;1999.90;;;999.90;;
63050;SDS011;49136;47.416;19.402;2024-03-22T07:26:07;1999.90;;;999.90;;
63050;SDS011;49136;47.416;19.402;2024-03-22T07:28:33;1999.90;;;999.90;;
63050;SDS011;49136;47.416;19.402;2024-03-22T07:30:58;1999.90;;;999.90;;
63050;SDS011;49136;47.416;19.402;2024-03-22T07:33:24;1999.90;;;999.90;;
63050;SDS011;49136;47.416;19.402;2024-03-22T07:35:49;1999.90;;;999.90;;
63050;SDS011;49136;47.416;19.402;2024-03-22T07:38:15;1999.90;;;999.90;;
63050;SDS011;49136;47.416;19.402;2024-03-22T07:40:40;1999.90;;;999.90;;
63050;SDS011;49136;47.416;19.402;2024-03-22T07:43:06;1999.90;;;999.90;;
63050;SDS011;49136;47.416;19.402;2024-03-22T07:45:33;1999.90;;;999.90;;
63050;SDS011;49136;47.416;19.402;2024-03-22T07:47:59;1999.90;;;999.90;;
63050;SDS011;49136;47.416;19.402;2024-03-22T07:50:25;1999.90;;;999.90;;
63050;SDS011;49136;47.416;19.402;2024-03-22T07:52:50;1999.90;;;999.90;;
63050;SDS011;49136;47.416;19.402;2024-03-22T07:55:16;1999.90;;;999.90;;
63050;SDS011;49136;47.416;19.402;2024-03-22T07:57:42;1999.90;;;999.90;;
63050;SDS011;49136;47.416;19.402;2024-03-22T08:00:07;1999.90;;;999.90;;
63050;SDS011;49136;47.416;19.402;2024-03-22T08:02:34;1999.90;;;999.90;;
63050;SDS011;49136;47.416;19.402;2024-03-22T08:05:00;1999.90;;;999.90;;
63050;SDS011;49136;47.416;19.402;2024-03-22T08:07:26;1999.90;;;999.90;;
63050;SDS011;49136;47.416;19.402;2024-03-22T08:09:52;1999.90;;;999.90;;
63050;SDS011;49136;47.416;19.402;2024-03-22T08:12:17;1999.90;;;999.90;;
63050;SDS011;49136;47.416;19.402;2024-03-22T08:14:44;1999.90;;;999.90;;
63050;SDS011;49136;47.416;19.402;2024-03-22T08:17:10;1999.90;;;999.90;;
63050;SDS011;49136;47.416;19.402;2024-03-22T08:19:36;1999.90;;;999.90;;
63050;SDS011;49136;47.416;19.402;2024-03-22T08:22:03;1999.90;;;999.90;;
63050;SDS011;49136;47.416;19.402;2024-03-22T08:24:29;1999.90;;;999.90;;
63050;SDS011;49136;47.416;19.402;2024-03-22T08:26:54;1999.90;;;999.90;;
63050;SDS011;49136;47.416;19.402;2024-03-22T08:29:20;1999.90;;;999.90;;
63050;SDS011;49136;47.416;19.402;2024-03-22T08:31:46;1034.93;;;528.25;;
63050;SDS011;49136;47.416;19.402;2024-03-22T08:34:11;1999.90;;;999.90;;
63050;SDS011;49136;47.416;19.402;2024-03-22T08:36:37;1999.90;;;999.90;;
63050;SDS011;49136;47.416;19.402;2024-03-22T08:39:02;1999.90;;;999.90;;
63050;SDS011;49136;47.416;19.402;2024-03-22T08:41:28;1999.90;;;999.90;;
63050;SDS011;49136;47.416;19.402;2024-03-22T08:43:53;1999.90;;;999.90;;
63050;SDS011;49136;47.416;19.402;2024-03-22T08:46:19;1999.90;;;999.90;;
63050;SDS011;49136;47.416;19.402;2024-03-22T08:48:46;1999.90;;;999.90;;
63050;SDS011;49136;47.416;19.402;2024-03-22T08:51:12;1999.90;;;999.90;;
63050;SDS011;49136;47.416;19.402;2024-03-22T08:53:37;65.88;;;52.95;;
63050;SDS011;49136;47.416;19.402;2024-03-22T08:56:02;1999.90;;;999.90;;
63050;SDS011;49136;47.416;19.402;2024-03-22T08:58:28;1999.90;;;999.90;;
63050;SDS011;49136;47.416;19.402;2024-03-22T09:00:54;1999.90;;;999.90;;
63050;SDS011;49136;47.416;19.402;2024-03-22T09:03:19;1999.90;;;999.90;;
63050;SDS011;49136;47.416;19.402;2024-03-22T09:05:46;1999.90;;;999.90;;
63050;SDS011;49136;47.416;19.402;2024-03-22T09:08:11;1999.90;;;999.90;;
63050;SDS011;49136;47.416;19.402;2024-03-22T09:10:37;1999.90;;;999.90;;
63050;SDS011;49136;47.416;19.402;2024-03-22T09:13:02;1999.90;;;999.90;;
63050;SDS011;49136;47.416;19.402;2024-03-22T09:15:28;1999.90;;;999.90;;
63050;SDS011;49136;47.416;19.402;2024-03-22T09:17:53;1999.90;;;999.90;;
63050;SDS011;49136;47.416;19.402;2024-03-22T09:20:19;1999.90;;;999.90;;
63050;SDS011;49136;47.416;19.402;2024-03-22T09:22:44;1999.90;;;999.90;;
63050;SDS011;49136;47.416;19.402;2024-03-22T09:25:09;1999.90;;;999.90;;
63050;SDS011;49136;47.416;19.402;2024-03-22T09:27:35;1999.90;;;999.90;;
63050;SDS011;49136;47.416;19.402;2024-03-22T09:30:00;1999.90;;;999.90;;
63050;SDS011;49136;47.416;19.402;2024-03-22T09:32:26;1999.90;;;999.90;;
63050;SDS011;49136;47.416;19.402;2024-03-22T09:34:52;1999.90;;;999.90;;
63050;SDS011;49136;47.416;19.402;2024-03-22T09:37:17;1999.90;;;999.90;;
63050;SDS011;49136;47.416;19.402;2024-03-22T09:39:43;1999.90;;;999.90;;
63050;SDS011;49136;47.416;19.402;2024-03-22T09:42:09;1999.90;;;999.90;;
63050;SDS011;49136;47.416;19.402;2024-03-22T09:44:41;1999.90;;;999.90;;
63050;SDS011;49136;47.416;19.402;2024-03-22T09:47:11;1999.90;;;999.90;;
63050;SDS011;49136;47.416;19.402;2024-03-22T09:49:40;1999.90;;;999.90;;
63050;SDS011;49136;47.416;19.402;2024-03-22T09:52:05;1999.90;;;999.90;;
63050;SDS011;49136;47.416;19.402;2024-03-22T09:54:31;240.70;;;219.20;;
63050;SDS011;49136;47.416;19.402;2024-03-22T09:56:57;453.65;;;413.92;;
63050;SDS011;49136;47.416;19.402;2024-03-22T09:59:24;475.00;;;432.73;;
63050;SDS011;49136;47.416;19.402;2024-03-22T10:01:49;1285.88;;;761.25;;
63050;SDS011;49136;47.416;19.402;2024-03-22T10:04:16;955.85;;;666.22;;
63050;SDS011;49136;47.416;19.402;2024-03-22T10:06:42;652.70;;;594.47;;
63050;SDS011;49136;47.416;19.402;2024-03-22T10:09:10;711.50;;;650.83;;
63050;SDS011;49136;47.416;19.402;2024-03-22T10:11:36;724.22;;;660.20;;
63050;SDS011;49136;47.416;19.402;2024-03-22T10:14:01;717.38;;;654.10;;
63050;SDS011;49136;47.416;19.402;2024-03-22T10:16:32;751.63;;;682.88;;
63050;SDS011;49136;47.416;19.402;2024-03-22T10:18:59;750.50;;;681.58;;
63050;SDS011;49136;47.416;19.402;2024-03-22T10:21:24;707.38;;;642.20;;
63050;SDS011;49136;47.416;19.402;2024-03-22T10:23:50;754.70;;;687.63;;
63050;SDS011;49136;47.416;19.402;2024-03-22T10:26:16;761.53;;;696.78;;
63050;SDS011;49136;47.416;19.402;2024-03-22T10:28:46;709.03;;;646.50;;
63050;SDS011;49136;47.416;19.402;2024-03-22T10:31:11;692.13;;;633.20;;
63050;SDS011;49136;47.416;19.402;2024-03-22T10:33:38;664.47;;;601.85;;
63050;SDS011;49136;47.416;19.402;2024-03-22T10:36:05;618.17;;;567.30;;
63050;SDS011;49136;47.416;19.402;2024-03-22T10:38:31;610.33;;;560.83;;
63050;SDS011;49136;47.416;19.402;2024-03-22T10:40:58;598.97;;;547.75;;
63050;SDS011;49136;47.416;19.402;2024-03-22T10:43:25;567.13;;;522.10;;
63050;SDS011;49136;47.416;19.402;2024-03-22T10:45:51;569.33;;;522.78;;
63050;SDS011;49136;47.416;19.402;2024-03-22T10:48:21;568.10;;;523.43;;
63050;SDS011;49136;47.416;19.402;2024-03-22T10:50:49;688.25;;;627.17;;
63050;SDS011;49136;47.416;19.402;2024-03-22T10:53:22;850.15;;;767.50;;
63050;SDS011;49136;47.416;19.402;2024-03-22T10:55:49;866.95;;;777.90;;
63050;SDS011;49136;47.416;19.402;2024-03-22T10:58:24;836.88;;;749.90;;
63050;SDS011;49136;47.416;19.402;2024-03-22T11:00:53;860.60;;;773.95;;
63050;SDS011;49136;47.416;19.402;2024-03-22T11:03:24;881.17;;;791.22;;
63050;SDS011;49136;47.416;19.402;2024-03-22T11:05:54;851.53;;;760.35;;
63050;SDS011;49136;47.416;19.402;2024-03-22T11:08:23;882.05;;;738.80;;
63050;SDS011;49136;47.416;19.402;2024-03-22T11:10:49;803.40;;;712.75;;
63050;SDS011;49136;47.416;19.402;2024-03-22T11:13:15;826.90;;;737.70;;
63050;SDS011;49136;47.416;19.402;2024-03-22T11:15:41;829.67;;;740.35;;
63050;SDS011;49136;47.416;19.402;2024-03-22T11:18:07;880.65;;;760.53;;
63050;SDS011;49136;47.416;19.402;2024-03-22T11:20:32;846.30;;;754.70;;
63050;SDS011;49136;47.416;19.402;2024-03-22T11:23:01;854.17;;;761.30;;
63050;SDS011;49136;47.416;19.402;2024-03-22T11:25:28;830.85;;;734.22;;
63050;SDS011;49136;47.416;19.402;2024-03-22T11:27:54;845.42;;;753.70;;
63050;SDS011;49136;47.416;19.402;2024-03-22T11:30:20;849.83;;;720.35;;
63050;SDS011;49136;47.416;19.402;2024-03-22T11:32:45;806.40;;;719.67;;
63050;SDS011;49136;47.416;19.402;2024-03-22T11:35:11;823.90;;;736.72;;
63050;SDS011;49136;47.416;19.402;2024-03-22T11:37:41;751.78;;;670.85;;
63050;SDS011;49136;47.416;19.402;2024-03-22T11:40:10;826.03;;;717.20;;
63050;SDS011;49136;47.416;19.402;2024-03-22T11:42:40;777.63;;;683.70;;
63050;SDS011;49136;47.416;19.402;2024-03-22T11:45:08;749.35;;;671.75;;
63050;SDS011;49136;47.416;19.402;2024-03-22T11:47:35;738.78;;;663.08;;
63050;SDS011;49136;47.416;19.402;2024-03-22T11:50:01;786.78;;;707.08;;
63050;SDS011;49136;47.416;19.402;2024-03-22T11:52:27;782.17;;;700.75;;
63050;SDS011;49136;47.416;19.402;2024-03-22T11:54:53;746.17;;;668.13;;
63050;SDS011;49136;47.416;19.402;2024-03-22T11:57:20;776.30;;;695.75;;
63050;SDS011;49136;47.416;19.402;2024-03-22T11:59:46;784.40;;;706.47;;
63050;SDS011;49136;47.416;19.402;2024-03-22T12:02:11;750.83;;;672.78;;
63050;SDS011;49136;47.416;19.402;2024-03-22T12:04:47;806.70;;;723.60;;
63050;SDS011;49136;47.416;19.402;2024-03-22T12:07:13;806.25;;;722.92;;
63050;SDS011;49136;47.416;19.402;2024-03-22T12:09:39;728.83;;;652.47;;
63050;SDS011;49136;47.416;19.402;2024-03-22T12:12:09;718.28;;;639.03;;
63050;SDS011;49136;47.416;19.402;2024-03-22T12:14:36;744.08;;;662.63;;
63050;SDS011;49136;47.416;19.402;2024-03-22T12:17:05;711.50;;;637.85;;
63050;SDS011;49136;47.416;19.402;2024-03-22T12:19:30;733.33;;;655.35;;
63050;SDS011;49136;47.416;19.402;2024-03-22T12:21:56;787.78;;;707.15;;
63050;SDS011;49136;47.416;19.402;2024-03-22T12:24:22;748.22;;;667.40;;
63050;SDS011;49136;47.416;19.402;2024-03-22T12:26:48;703.30;;;629.35;;
63050;SDS011;49136;47.416;19.402;2024-03-22T12:29:17;664.63;;;593.17;;
63050;SDS011;49136;47.416;19.402;2024-03-22T12:31:43;683.55;;;609.95;;
63050;SDS011;49136;47.416;19.402;2024-03-22T12:34:09;696.08;;;620.95;;
63050;SDS011;49136;47.416;19.402;2024-03-22T12:36:35;680.10;;;608.72;;
63050;SDS011;49136;47.416;19.402;2024-03-22T12:39:00;625.85;;;562.17;;
63050;SDS011;49136;47.416;19.402;2024-03-22T12:41:26;651.13;;;585.28;;
63050;SDS011;49136;47.416;19.402;2024-03-22T12:43:54;657.83;;;593.25;;
63050;SDS011;49136;47.416;19.402;2024-03-22T12:46:19;672.58;;;603.83;;
63050;SDS011;49136;47.416;19.402;2024-03-22T12:48:45;695.65;;;624.50;;
63050;SDS011;49136;47.416;19.402;2024-03-22T12:51:10;679.35;;;609.33;;
63050;SDS011;49136;47.416;19.402;2024-03-22T12:53:36;651.38;;;581.63;;
63050;SDS011;49136;47.416;19.402;2024-03-22T12:56:02;673.75;;;603.50;;
63050;SDS011;49136;47.416;19.402;2024-03-22T12:58:32;691.95;;;624.03;;
63050;SDS011;49136;47.416;19.402;2024-03-22T13:00:57;642.38;;;577.10;;
63050;SDS011;49136;47.416;19.402;2024-03-22T13:03:25;653.65;;;589.88;;
63050;SDS011;49136;47.416;19.402;2024-03-22T13:05:51;668.30;;;600.03;;
63050;SDS011;49136;47.416;19.402;2024-03-22T13:08:17;688.75;;;619.78;;
63050;SDS011;49136;47.416;19.402;2024-03-22T13:10:42;658.58;;;593.92;;
63050;SDS011;49136;47.416;19.402;2024-03-22T13:13:09;680.38;;;613.60;;
63050;SDS011;49136;47.416;19.402;2024-03-22T13:15:35;691.65;;;623.65;;
63050;SDS011;49136;47.416;19.402;2024-03-22T13:18:03;633.67;;;564.38;;
63050;SDS011;49136;47.416;19.402;2024-03-22T13:20:28;665.53;;;596.05;;
63050;SDS011;49136;47.416;19.402;2024-03-22T13:22:54;678.50;;;611.50;;
63050;SDS011;49136;47.416;19.402;2024-03-22T13:25:20;647.85;;;581.90;;
63050;SDS011;49136;47.416;19.402;2024-03-22T13:27:45;617.50;;;558.35;;
63050;SDS011;49136;47.416;19.402;2024-03-22T13:30:10;614.70;;;552.63;;
63050;SDS011;49136;47.416;19.402;2024-03-22T13:32:37;684.85;;;614.90;;
63050;SDS011;49136;47.416;19.402;2024-03-22T13:35:03;643.75;;;576.92;;